NCAR-RAP Real-Time Weather Data

Output produced by METARs form (12 May 2021  11:17 UTC)
found at http://weather.rap.ucar.edu/surface/
 
KRUT 121056Z AUTO 06003KT 10SM BKN010 OVC021 05/05 A3006 RMK AO2 RAE09 SLP177 P0000 T00500050 $
KRUT 120956Z AUTO 00000KT 10SM -RA OVC019 05/05 A3004 RMK AO2 SLP168 P0000 T00500050 $
KRUT 120856Z AUTO 00000KT 10SM -RA OVC021 05/04 A3001 RMK AO2 SLP160 P0000 60000 T00500039 53011 $
KRUT 120756Z AUTO 28005KT 10SM -RA OVC023 05/03 A3000 RMK AO2 SLP153 P0000 T00500028 $
KRUT 120720Z AUTO 28006KT 10SM -RA BKN025 OVC032 06/03 A2999 RMK AO2 P0000 $
KRUT 120656Z AUTO 26006KT 10SM -RA SCT030 OVC038 06/02 A2998 RMK AO2 RAB11 SLP149 P0000 T00610022 $
KRUT 120556Z AUTO 26007KT 10SM OVC038 07/00 A2998 RMK AO2 RAB03E28 SLP148 P0000 60000 T00720000 10106 20072 56004 $
KRUT 120456Z AUTO 27005KT 10SM OVC046 07/M01 A2998 RMK AO2 RAB26E47 SLP150 P0000 T00721006 401330033 $
KRUT 120356Z AUTO 23005KT 10SM OVC045 08/M02 A2998 RMK AO2 RAB17E39 SLP151 P0000 T00781017 $
KRUT 120256Z AUTO 27007G22KT 10SM OVC055 08/M03 A2999 RMK AO2 SLP153 T00831028 51015 $
KRUT 120156Z AUTO 29007KT 10SM BKN060 BKN080 09/M04 A2999 RMK AO2 SLP151 T00891039 $
KRUT 120056Z AUTO 28010KT 10SM SCT080 09/M04 A2997 RMK AO2 SLP145 T00941044 $
KRUT 112356Z AUTO 28011G18KT 10SM FEW085 BKN100 11/M07 A2995 RMK AO2 SLP138 T01061072 10133 20106 53013 $
KRUT 112256Z AUTO 27013G17KT 10SM BKN095 12/M08 A2993 RMK AO2 SLP130 T01171078 $
KRUT 112156Z AUTO 28010G22KT 10SM SCT100 12/M08 A2992 RMK AO2 SLP129 T01221078 $
KRUT 112056Z AUTO 25018G22KT 10SM FEW095 13/M07 A2991 RMK AO2 PK WND 24027/2029 SLP125 T01331067 55009 $
KRUT 111956Z AUTO 26016G22KT 10SM FEW085 13/M06 A2990 RMK AO2 SLP121 T01331061 $